Time;durP1;ratioP1;P1;durP2;ratioP2;P2;SDS_P1;SDS_P2;PMS_P1;PMS_P2;Temp;Humidity;BMP_temperature;BMP_pressure;BME280_temperature;BME280_humidity;BME280_pressure;Samples;Min_cycle;Max_cycle;Signal;HPM_P1;HPM_P2
2023/01/20 00:00:49;;;;;;;28.40;15.40;;;;;;;21.51;41.67;98435.77;275825;1244;22501;-85
2023/01/20 00:07:37;;;;;;;35.60;17.20;;;;;;;21.07;42.01;98447.81;275895;1244;22501;-86
2023/01/20 00:13:48;;;;;;;29.20;15.10;;;;;;;21.88;40.98;98447.52;275574;1244;22890;-85
2023/01/20 00:20:05;;;;;;;31.50;14.90;;;;;;;21.78;40.86;98436.48;271639;1244;5361575;-87
2023/01/20 00:26:23;;;;;;;30.40;15.20;;;;;;;21.33;41.18;98444.86;275533;1244;22578;-86
2023/01/20 00:32:52;;;;;;;26.70;14.20;;;;;;;21.15;41.25;98461.38;275587;1244;25500;-88
2023/01/20 00:39:04;;;;;;;29.00;14.20;;;;;;;20.96;41.43;98458.29;275830;1244;25241;-86
2023/01/20 00:45:17;;;;;;;30.70;13.90;;;;;;;18.69;44.22;98456.59;275812;1244;26488;-85
2023/01/20 00:51:23;;;;;;;28.70;14.20;;;;;;;17.67;45.53;98461.45;275838;1244;23845;-86
2023/01/20 00:57:28;;;;;;;30.70;15.00;;;;;;;17.34;46.00;98459.61;275934;1244;25443;-86
2023/01/20 01:03:30;;;;;;;31.30;15.30;;;;;;;17.33;46.05;98492.39;275900;1244;22786;-86
2023/01/20 01:09:32;;;;;;;31.00;15.40;;;;;;;17.45;45.89;98495.45;275812;1244;25194;-87
2023/01/20 01:15:47;;;;;;;34.00;15.70;;;;;;;16.77;46.58;98494.04;275579;1244;22512;-86
2023/01/20 01:21:51;;;;;;;32.20;15.50;;;;;;;16.58;46.89;98482.27;275555;1244;22502;-85
2023/01/20 01:28:08;;;;;;;30.40;15.00;;;;;;;17.00;46.24;98477.23;275686;1235;22549;-85
2023/01/20 01:34:15;;;;;;;32.80;16.00;;;;;;;16.68;46.60;98477.70;276028;1240;22663;-85
2023/01/20 01:40:17;;;;;;;32.60;16.20;;;;;;;16.93;46.49;98476.22;275872;1244;22542;-84
2023/01/20 01:46:36;;;;;;;32.60;15.60;;;;;;;17.10;46.18;98479.59;275659;1244;22491;-84
2023/01/20 01:52:39;;;;;;;30.70;15.90;;;;;;;17.28;46.16;98481.30;275882;1244;24224;-83
2023/01/20 01:58:51;;;;;;;31.50;16.10;;;;;;;17.57;45.77;98488.33;275608;1244;25202;-84
2023/01/20 02:04:58;;;;;;;32.80;15.70;;;;;;;17.45;45.99;98488.33;275508;1244;24486;-84
2023/01/20 02:11:03;;;;;;;36.40;17.60;;;;;;;17.50;46.07;98500.88;275754;1240;22545;-83
2023/01/20 02:17:46;;;;;;;34.00;17.20;;;;;;;17.67;45.79;98514.52;275797;1244;22698;-82
2023/01/20 02:24:25;;;;;;;35.50;16.80;;;;;;;17.06;46.65;98509.10;275960;1244;22494;-86
2023/01/20 02:30:58;;;;;;;36.80;17.80;;;;;;;17.22;46.67;98507.60;275773;1244;22541;-85
2023/01/20 02:37:18;;;;;;;38.90;18.60;;;;;;;17.02;47.04;98501.23;275509;1244;22617;-86
2023/01/20 02:43:42;;;;;;;37.90;18.30;;;;;;;17.09;46.87;98516.44;275962;1241;22535;-89
2023/01/20 02:49:55;;;;;;;37.80;18.10;;;;;;;16.83;47.34;98523.27;275873;1244;22648;-85
2023/01/20 02:56:12;;;;;;;31.40;16.60;;;;;;;16.68;47.76;98528.17;275991;1244;22562;-85
2023/01/20 03:02:25;;;;;;;35.80;17.60;;;;;;;16.65;47.93;98529.48;275809;1243;25324;-85
2023/01/20 03:08:34;;;;;;;35.70;17.40;;;;;;;16.66;47.95;98525.64;275753;1243;25394;-85
2023/01/20 03:14:47;;;;;;;36.20;17.80;;;;;;;16.57;48.13;98534.11;275830;1243;25409;-85
2023/01/20 03:21:02;;;;;;;36.50;18.20;;;;;;;16.54;48.28;98533.33;275537;1244;26960;-85
2023/01/20 03:27:07;;;;;;;42.10;19.50;;;;;;;16.48;48.33;98534.89;275992;1244;22505;-86
2023/01/20 03:33:09;;;;;;;34.00;17.60;;;;;;;16.14;48.83;98538.69;275984;1244;24228;-85
2023/01/20 03:39:14;;;;;;;34.70;17.50;;;;;;;16.13;48.93;98534.84;275835;1244;25393;-88
2023/01/20 03:45:34;;;;;;;38.60;17.70;;;;;;;16.13;49.03;98546.73;275782;1244;22562;-88
2023/01/20 03:52:05;;;;;;;33.90;17.50;;;;;;;16.20;48.96;98542.34;275385;1244;22626;-86
2023/01/20 03:58:28;;;;;;;36.60;17.60;;;;;;;16.20;48.96;98537.36;275714;1242;22569;-85
2023/01/20 04:04:53;;;;;;;37.30;18.20;;;;;;;16.23;48.84;98532.29;275792;1240;24380;-85
2023/01/20 04:10:59;;;;;;;43.30;19.70;;;;;;;16.63;48.00;98545.36;275920;1241;25404;-86
2023/01/20 04:17:15;;;;;;;42.40;19.80;;;;;;;16.51;48.13;98550.57;275998;1244;22532;-86
2023/01/20 04:24:01;;;;;;;38.80;19.90;;;;;;;16.90;47.61;98560.06;276619;1240;25661;-86
2023/01/20 04:30:30;;;;;;;37.80;19.00;;;;;;;16.98;47.20;98570.27;276411;1244;24004;-86
2023/01/20 04:36:48;;;;;;;40.60;20.20;;;;;;;16.46;47.98;98579.55;276644;1244;24724;-86
2023/01/20 04:43:17;;;;;;;41.00;20.40;;;;;;;16.57;47.78;98591.86;275879;1244;23286;-85
2023/01/20 04:49:23;;;;;;;37.60;17.70;;;;;;;16.56;47.56;98599.80;275619;1237;22553;-85
2023/01/20 04:55:36;;;;;;;35.10;17.10;;;;;;;16.11;48.34;98608.30;275682;1244;22536;-86
2023/01/20 05:02:05;;;;;;;30.20;14.30;;;;;;;15.90;48.05;98617.98;275983;1244;23178;-89
2023/01/20 05:08:26;;;;;;;32.00;14.70;;;;;;;15.88;47.57;98624.40;275960;1244;22579;-86
2023/01/20 05:14:48;;;;;;;29.30;14.10;;;;;;;15.74;47.93;98632.52;275881;1244;22586;-87
2023/01/20 05:20:50;;;;;;;31.20;14.50;;;;;;;15.21;48.85;98632.21;275807;1244;22509;-86
2023/01/20 05:27:04;;;;;;;28.00;13.30;;;;;;;15.49;47.95;98629.63;276034;1244;25209;-85
2023/01/20 05:33:15;;;;;;;25.40;10.70;;;;;;;15.24;47.57;98637.64;275892;1244;22518;-87
2023/01/20 05:39:32;;;;;;;25.70;11.20;;;;;;;14.24;48.36;98648.06;275677;1237;22593;-86
2023/01/20 05:45:34;;;;;;;22.40;10.00;;;;;;;14.67;48.20;98650.34;275971;1243;22616;-88
2023/01/20 05:51:42;;;;;;;23.20;9.60;;;;;;;14.35;48.17;98660.02;275905;1244;22555;-88
2023/01/20 05:57:44;;;;;;;23.20;10.60;;;;;;;15.30;46.79;98652.64;275638;1244;24479;-86
2023/01/20 06:03:51;;;;;;;24.80;10.20;;;;;;;14.66;47.37;98662.12;276853;1240;23032;-91
2023/01/20 06:10:01;;;;;;;23.00;10.80;;;;;;;14.48;47.76;98670.15;278907;1244;22541;-92
2023/01/20 06:16:43;;;;;;;24.30;10.10;;;;;;;15.14;46.87;98670.62;277098;1244;25324;-83
2023/01/20 06:22:44;;;;;;;23.90;11.00;;;;;;;14.92;46.99;98689.31;275938;1244;22726;-84
2023/01/20 06:28:56;;;;;;;;;;;;;;;;;;;;;
2023/01/20 06:34:58;;;;;;;25.30;10.50;;;;;;;15.27;46.56;98687.41;275893;1237;24333;-85
2023/01/20 06:41:02;;;;;;;20.70;9.80;;;;;;;15.11;47.01;98697.53;275796;1244;24179;-82
2023/01/20 06:47:03;;;;;;;22.90;10.30;;;;;;;15.08;47.46;98697.16;274787;1243;24203;-83
2023/01/20 06:53:05;;;;;;;21.00;10.00;;;;;;;14.94;47.78;98700.70;275444;1244;22633;-83
2023/01/20 06:59:09;;;;;;;24.10;10.00;;;;;;;15.04;47.48;98702.45;275093;1243;22506;-84
2023/01/20 07:05:10;;;;;;;25.10;11.10;;;;;;;15.15;47.53;98706.63;275184;1233;26676;-82
2023/01/20 07:11:12;;;;;;;24.70;10.80;;;;;;;15.36;47.20;98705.13;275326;1244;25761;-85
2023/01/20 07:17:13;;;;;;;29.20;11.80;;;;;;;15.33;47.31;98703.00;274858;1244;22568;-83
2023/01/20 07:23:15;;;;;;;32.00;13.00;;;;;;;15.42;47.11;98698.30;274937;1234;24146;-82
2023/01/20 07:29:16;;;;;;;29.10;13.20;;;;;;;15.46;46.98;98704.52;274617;1244;24974;-83
2023/01/20 07:35:18;;;;;;;32.00;14.70;;;;;;;15.31;47.20;98716.88;274586;1244;22509;-82
2023/01/20 07:41:23;;;;;;;29.20;13.70;;;;;;;15.17;47.22;98728.07;274886;1244;22501;-83
2023/01/20 07:47:25;;;;;;;31.60;14.30;;;;;;;14.84;47.89;98737.38;274711;1244;22532;-83
2023/01/20 07:53:45;;;;;;;29.20;13.10;;;;;;;15.11;48.11;98734.62;274732;1244;22491;-84
2023/01/20 07:59:47;;;;;;;28.60;13.00;;;;;;;15.13;47.99;98734.95;275178;1244;22558;-79
2023/01/20 08:05:49;;;;;;;29.00;13.00;;;;;;;15.11;48.34;98735.11;275181;1244;22549;-81
2023/01/20 08:11:51;;;;;;;29.40;12.80;;;;;;;14.94;48.68;98744.39;275632;1244;25305;-82
2023/01/20 08:17:54;;;;;;;30.50;13.00;;;;;;;14.98;48.92;98754.91;275298;1244;24315;-81
2023/01/20 08:24:00;;;;;;;30.20;12.80;;;;;;;15.14;48.83;98764.46;275672;1244;22523;-81
2023/01/20 08:30:03;;;;;;;29.60;13.20;;;;;;;15.08;49.01;98764.94;276366;1238;23816;-80
2023/01/20 08:36:06;;;;;;;28.90;13.60;;;;;;;15.34;48.77;98760.48;276981;1244;22580;-82
2023/01/20 08:42:08;;;;;;;27.70;12.50;;;;;;;15.21;49.02;98759.72;275523;1244;26671;-81
2023/01/20 08:48:09;;;;;;;28.90;12.70;;;;;;;15.07;49.37;98764.63;275127;1244;23345;-82
2023/01/20 08:54:11;;;;;;;31.00;13.00;;;;;;;15.21;48.87;98772.60;275480;1244;22532;-84
2023/01/20 09:00:13;;;;;;;30.90;13.10;;;;;;;14.80;49.46;98775.62;275033;1244;22501;-84
2023/01/20 09:06:15;;;;;;;28.40;14.10;;;;;;;14.95;49.41;98774.17;274984;1244;23843;-81
2023/01/20 09:12:17;;;;;;;33.50;14.10;;;;;;;14.64;49.69;98781.98;275156;1244;25507;-83
2023/01/20 09:18:18;;;;;;;34.60;15.10;;;;;;;14.54;50.06;98784.27;275148;1244;22554;-83
2023/01/20 09:24:22;;;;;;;37.80;16.40;;;;;;;14.45;50.28;98788.88;275102;1244;24203;-83
2023/01/20 09:30:24;;;;;;;31.80;14.00;;;;;;;14.59;50.33;98788.25;275063;1244;22636;-80
2023/01/20 09:36:28;;;;;;;33.50;13.90;;;;;;;14.84;49.92;98782.83;275061;1244;22498;-83
2023/01/20 09:55:52;;;;;;;29.30;12.30;;;;;;;13.85;52.04;98781.26;275086;1244;22544;-83
2023/01/20 10:01:57;;;;;;;35.00;14.50;;;;;;;14.30;51.21;98780.55;275210;1244;22545;-83
2023/01/20 10:08:18;;;;;;;36.40;14.90;;;;;;;14.62;50.44;98772.27;275067;1244;22829;-84
2023/01/20 10:14:43;;;;;;;38.10;14.70;;;;;;;14.85;50.40;98768.79;275064;1244;22512;-84
2023/01/20 10:21:05;;;;;;;35.90;14.30;;;;;;;14.83;50.25;98768.27;275141;1244;22519;-83
2023/01/20 10:27:07;;;;;;;32.60;14.10;;;;;;;15.10;49.78;98777.83;274965;1244;24671;-82
2023/01/20 10:33:15;;;;;;;33.10;14.70;;;;;;;14.93;50.31;98772.64;275258;1244;22518;-82
2023/01/20 10:39:30;;;;;;;37.10;15.30;;;;;;;14.99;50.16;98771.09;275086;1244;23207;-83
2023/01/20 10:45:49;;;;;;;34.60;14.70;;;;;;;15.31;49.49;98776.57;275175;1244;22541;-82
2023/01/20 10:52:12;;;;;;;38.10;15.60;;;;;;;14.84;50.30;98773.71;275061;1244;25290;-83
2023/01/20 10:58:27;;;;;;;33.80;13.90;;;;;;;15.41;49.55;98761.72;275009;1244;22577;-85
2023/01/20 11:04:28;;;;;;;34.30;13.80;;;;;;;14.04;51.70;98764.79;275727;1244;22564;-83
2023/01/20 11:10:35;;;;;;;35.90;16.20;;;;;;;13.84;52.24;98765.29;276016;1244;23255;-84
2023/01/20 11:16:39;;;;;;;41.30;16.20;;;;;;;13.71;52.44;98752.86;275057;1244;22511;-86
2023/01/20 11:22:46;;;;;;;43.60;16.20;;;;;;;13.35;53.53;98741.05;275189;1244;25219;-84
2023/01/20 11:28:47;;;;;;;;;;;;;;;13.43;53.47;98740.30;275137;1244;22490;-85
2023/01/20 11:34:49;;;;;;;42.50;16.50;;;;;;;12.61;55.22;98743.95;275059;1244;22561;-85
2023/01/20 11:40:52;;;;;;;47.10;17.70;;;;;;;13.27;54.55;98724.70;274981;1244;22597;-85
2023/01/20 11:46:55;;;;;;;38.60;14.70;;;;;;;13.09;55.58;98717.81;275172;1244;25342;-85
2023/01/20 11:53:17;;;;;;;43.10;14.10;;;;;;;12.52;55.86;98718.53;274901;1244;22482;-84
2023/01/20 11:59:23;;;;;;;43.20;16.40;;;;;;;11.44;58.43;98716.52;275014;1244;24259;-85
2023/01/20 12:05:36;;;;;;;40.10;16.20;;;;;;;12.06;57.47;98698.21;274978;1244;23005;-85
2023/01/20 12:11:58;;;;;;;43.30;16.10;;;;;;;12.54;56.54;98697.92;275268;1244;22502;-85
2023/01/20 12:18:17;;;;;;;39.10;15.70;;;;;;;12.23;56.75;98718.84;274915;1244;125654;-84
2023/01/20 12:25:06;;;;;;;38.00;16.50;;;;;;;12.83;56.13;98714.57;274927;1244;22556;-85
2023/01/20 12:31:04;;;;;;;42.20;16.30;;;;;;;13.56;54.65;98718.84;275191;1230;22499;-85
2023/01/20 12:37:30;;;;;;;44.90;17.60;;;;;;;13.36;55.17;98724.77;275001;1238;22917;-84
2023/01/20 12:43:52;;;;;;;43.10;16.40;;;;;;;12.68;56.30;98728.95;274998;1244;22682;-86
2023/01/20 12:50:08;;;;;;;41.00;16.60;;;;;;;12.01;57.83;98733.75;274967;1244;22617;-87
2023/01/20 12:56:35;;;;;;;45.10;17.00;;;;;;;12.36;56.84;98733.79;275102;1244;26378;-85
2023/01/20 13:02:55;;;;;;;41.80;16.00;;;;;;;11.59;58.41;98751.27;275035;1244;24414;-84
2023/01/20 13:09:08;;;;;;;46.00;16.80;;;;;;;11.68;59.33;98757.04;274865;1244;22722;-84
2023/01/20 13:15:22;;;;;;;45.60;17.00;;;;;;;12.86;57.17;98771.59;274863;1244;22866;-85
2023/01/20 13:21:24;;;;;;;48.50;18.40;;;;;;;13.27;56.70;98769.08;274874;1234;22532;-85
2023/01/20 13:27:34;;;;;;;48.50;17.20;;;;;;;13.28;56.17;98765.44;274720;1244;25172;-85
2023/01/20 13:33:38;;;;;;;44.60;16.50;;;;;;;12.93;57.20;98766.26;275011;1244;22575;-85
2023/01/20 13:39:42;;;;;;;45.40;16.60;;;;;;;13.31;57.09;98765.14;274927;1244;25387;-84
2023/01/20 13:45:43;;;;;;;48.60;18.00;;;;;;;12.63;57.76;98771.77;275144;1244;22567;-86
2023/01/20 13:51:45;;;;;;;39.70;15.60;;;;;;;12.59;57.91;98770.42;274918;1244;24255;-86
2023/01/20 13:57:46;;;;;;;46.80;18.30;;;;;;;12.36;57.91;98773.82;275169;1244;24159;-86
2023/01/20 14:04:06;;;;;;;47.90;18.30;;;;;;;12.20;58.84;98775.75;275639;1241;23641;-86
2023/01/20 14:10:11;;;;;;;47.30;18.30;;;;;;;12.67;58.03;98775.23;275219;1244;25333;-86
2023/01/20 14:16:25;;;;;;;41.30;16.70;;;;;;;12.45;58.67;98773.30;275341;1232;25284;-85
2023/01/20 14:22:30;;;;;;;42.70;16.20;;;;;;;12.85;57.75;98779.05;275188;1244;24424;-85
2023/01/20 14:28:34;;;;;;;44.20;16.70;;;;;;;11.96;59.29;98781.17;275421;1244;22546;-86
2023/01/20 14:34:36;;;;;;;41.80;16.50;;;;;;;12.48;58.44;98782.08;275189;1244;22494;-87
2023/01/20 14:40:41;;;;;;;42.80;16.40;;;;;;;12.48;58.04;98779.66;275235;1244;24309;-86
2023/01/20 14:46:43;;;;;;;41.10;16.40;;;;;;;12.22;58.57;98787.84;275475;1244;25336;-87
2023/01/20 14:52:45;;;;;;;43.20;15.30;;;;;;;12.33;58.88;98797.86;275144;1244;25320;-85
2023/01/20 14:58:48;;;;;;;36.50;14.10;;;;;;;12.21;59.47;98795.94;275299;1230;22931;-85
2023/01/20 15:04:50;;;;;;;41.20;15.60;;;;;;;12.74;57.83;98794.02;275237;1244;24220;-84
2023/01/20 15:11:17;;;;;;;38.80;15.40;;;;;;;11.99;59.58;98796.39;275135;1244;22687;-79
2023/01/20 15:17:19;;;;;;;41.70;15.80;;;;;;;11.71;60.24;98794.51;275182;1244;24164;-84
2023/01/20 15:23:29;;;;;;;46.30;16.30;;;;;;;12.59;58.56;98795.05;275345;1244;25273;-83
2023/01/20 15:29:35;;;;;;;44.10;16.60;;;;;;;12.23;59.13;98795.44;275322;1244;22564;-83
2023/01/20 15:35:37;;;;;;;;;;;;;;;11.77;59.46;98791.74;275229;1236;25311;-83
2023/01/20 15:41:38;;;;;;;38.50;14.70;;;;;;;11.63;60.21;98790.88;275140;1244;22545;-86
2023/01/20 15:47:42;;;;;;;34.90;13.80;;;;;;;11.45;60.80;98789.48;275067;1244;22492;-85
2023/01/20 15:53:44;;;;;;;33.90;13.40;;;;;;;11.34;61.85;98790.76;275099;1235;22585;-85
2023/01/20 15:59:48;;;;;;;33.70;13.10;;;;;;;12.06;61.13;98784.23;274860;1240;25312;-85
2023/01/20 16:05:51;;;;;;;35.80;14.00;;;;;;;10.75;63.18;98796.42;274995;1244;22548;-85
2023/01/20 16:11:53;;;;;;;29.50;12.20;;;;;;;10.98;75.06;98792.88;274945;1244;23260;-85
2023/01/20 16:17:54;;;;;;;35.40;13.60;;;;;;;11.11;68.93;98789.83;275236;1244;23224;-84
2023/01/20 16:23:56;;;;;;;28.70;11.80;;;;;;;11.03;73.12;98791.73;275639;1244;26402;-85
2023/01/20 16:30:00;;;;;;;28.40;11.80;;;;;;;11.32;68.91;98791.67;275328;1233;22689;-83
2023/01/20 16:36:02;;;;;;;23.40;10.40;;;;;;;10.86;71.18;98803.38;275264;1244;22617;-82
2023/01/20 16:42:04;;;;;;;27.20;11.10;;;;;;;11.57;69.52;98798.84;275218;1244;22919;-84
2023/01/20 16:48:08;;;;;;;23.80;9.70;;;;;;;11.60;67.25;98800.23;275483;1244;24198;-83
2023/01/20 16:54:09;;;;;;;24.90;11.00;;;;;;;11.23;67.01;98810.54;275573;1240;22619;-82
2023/01/20 17:00:12;;;;;;;28.00;10.90;;;;;;;11.54;66.01;98812.77;275450;1234;22659;-84
2023/01/20 17:06:18;;;;;;;29.90;11.60;;;;;;;11.55;65.86;98813.80;275236;1234;24179;-84
2023/01/20 17:12:20;;;;;;;21.60;9.80;;;;;;;11.22;84.96;98818.30;275638;1244;22539;-87
2023/01/20 17:18:23;;;;;;;24.30;10.60;;;;;;;10.15;81.86;98818.39;276384;1244;22623;-87
2023/01/20 17:24:25;;;;;;;24.10;11.10;;;;;;;11.09;78.34;98811.06;276137;1244;22557;-88
2023/01/20 17:30:27;;;;;;;28.20;11.80;;;;;;;11.02;74.34;98812.23;276365;1240;22549;-86
2023/01/20 17:36:33;;;;;;;26.30;11.70;;;;;;;11.21;73.90;98810.61;275202;1244;22510;-85
2023/01/20 17:42:34;;;;;;;27.40;12.10;;;;;;;11.00;73.18;98806.21;275203;1244;22547;-85
2023/01/20 17:48:36;;;;;;;23.90;11.30;;;;;;;11.01;72.43;98806.55;275398;1244;22546;-85
2023/01/20 17:54:37;;;;;;;25.60;11.50;;;;;;;11.23;71.97;98810.14;275009;1244;24007;-85
2023/01/20 18:00:38;;;;;;;26.20;11.30;;;;;;;11.50;71.46;98800.45;274863;1244;22561;-86
2023/01/20 18:06:40;;;;;;;24.90;11.40;;;;;;;11.63;69.98;98803.77;274747;1244;22867;-85
2023/01/20 18:12:44;;;;;;;22.10;9.70;;;;;;;11.69;70.36;98807.36;275037;1244;25449;-84
2023/01/20 18:18:46;;;;;;;24.60;11.30;;;;;;;10.56;73.13;98807.98;275169;1238;22499;-84
2023/01/20 18:24:55;;;;;;;22.00;10.40;;;;;;;11.47;70.42;98796.42;275316;1244;24638;-86
2023/01/20 18:31:07;;;;;;;24.40;10.80;;;;;;;11.18;69.70;98801.07;275743;1244;26645;-83
2023/01/20 18:37:18;;;;;;;21.50;10.40;;;;;;;11.80;68.83;98792.52;275755;1244;22618;-88
2023/01/20 18:43:20;;;;;;;20.10;9.20;;;;;;;12.12;67.64;98788.15;275269;1244;24335;-84
2023/01/20 18:49:34;;;;;;;21.10;9.60;;;;;;;11.23;81.14;98795.86;275687;1244;22764;-88
2023/01/20 18:55:36;;;;;;;18.50;8.60;;;;;;;11.43;74.67;98798.85;275361;1240;24168;-81
2023/01/20 19:01:39;;;;;;;16.70;8.70;;;;;;;10.92;74.23;98791.33;275343;1244;22501;-84
2023/01/20 19:07:49;;;;;;;15.70;7.80;;;;;;;-20.68;77.23;102859.72;275589;1244;342255;-87
2023/01/20 19:13:52;;;;;;;17.90;8.60;;;;;;;-21.26;77.39;110257.86;275451;1244;55186;-86
2023/01/20 19:19:53;;;;;;;17.10;8.30;;;;;;;10.14;72.75;98798.73;275343;1241;22579;-84
2023/01/20 19:26:02;;;;;;;14.50;6.90;;;;;;;10.48;72.43;98798.33;275325;1243;24179;-86
2023/01/20 19:32:05;;;;;;;16.00;7.60;;;;;;;10.85;70.66;98800.55;275297;1244;23850;-86
2023/01/20 19:38:06;;;;;;;14.90;7.90;;;;;;;10.96;70.82;98802.93;275400;1244;23192;-85
2023/01/20 19:44:12;;;;;;;14.20;7.20;;;;;;;10.65;71.49;98804.95;275174;1238;24153;-87
2023/01/20 19:50:16;;;;;;;14.00;7.30;;;;;;;10.37;71.78;98797.00;275211;1244;23025;-85
2023/01/20 19:56:18;;;;;;;12.80;6.40;;;;;;;11.27;70.19;98778.90;275824;1232;24968;-83
2023/01/20 20:02:20;;;;;;;11.50;5.70;;;;;;;11.11;68.54;98777.19;275451;1244;22951;-86
2023/01/20 20:08:22;;;;;;;12.00;6.00;;;;;;;11.44;68.53;98780.74;275642;1244;22519;-84
2023/01/20 20:14:26;;;;;;;13.80;6.30;;;;;;;11.45;66.96;98781.02;275639;1244;22823;-80
2023/01/20 20:20:28;;;;;;;16.00;7.30;;;;;;;10.88;68.94;98770.88;275547;1244;24189;-82
2023/01/20 20:26:33;;;;;;;13.70;6.60;;;;;;;11.18;68.07;98761.07;275133;1241;22556;-83
2023/01/20 20:32:34;;;;;;;11.40;6.20;;;;;;;11.49;67.11;98748.78;275260;1244;22576;-83
2023/01/20 20:38:36;;;;;;;14.60;7.80;;;;;;;10.56;68.43;98757.73;275076;1244;22740;-79
2023/01/20 20:44:38;;;;;;;14.00;7.60;;;;;;;11.43;66.63;98759.79;275204;1244;22497;-81
2023/01/20 20:50:41;;;;;;;16.60;8.80;;;;;;;11.48;66.19;98760.67;275097;1244;22566;-81
2023/01/20 20:56:43;;;;;;;14.20;7.60;;;;;;;10.78;67.87;98753.52;275901;1244;22513;-79
2023/01/20 21:02:45;;;;;;;12.40;6.70;;;;;;;10.99;70.80;98740.23;275177;1237;22495;-80
2023/01/20 21:08:47;;;;;;;13.70;7.20;;;;;;;10.89;70.16;98739.29;275314;1231;24271;-82
2023/01/20 21:14:49;;;;;;;14.70;7.40;;;;;;;10.61;69.68;98730.31;275382;1244;24488;-81
2023/01/20 21:21:02;;;;;;;15.30;7.40;;;;;;;10.69;69.75;98719.38;275381;1244;24041;-82
2023/01/20 21:27:04;;;;;;;12.20;6.30;;;;;;;11.07;68.60;98716.11;275699;1244;22535;-82
2023/01/20 21:33:16;;;;;;;12.90;6.80;;;;;;;11.05;67.66;98720.31;275436;1244;24281;-81
2023/01/20 21:39:19;;;;;;;13.70;6.30;;;;;;;11.13;68.42;98722.80;275470;1244;22555;-81
2023/01/20 21:45:21;;;;;;;11.20;6.30;;;;;;;10.88;67.55;98726.79;275433;1244;22587;-80
2023/01/20 21:57:46;;;;;;;11.60;5.60;;;;;;;11.69;65.08;98722.94;275306;1244;22505;-80
2023/01/20 22:03:51;;;;;;;10.60;5.10;;;;;;;10.88;67.16;98724.44;275450;1244;24360;-80
2023/01/20 22:09:54;;;;;;;10.00;5.30;;;;;;;10.60;67.75;98721.61;275362;1244;22966;-81
2023/01/20 22:16:03;;;;;;;9.90;5.60;;;;;;;11.30;65.92;98711.95;275642;1244;25310;-85
2023/01/20 22:22:06;;;;;;;10.50;5.30;;;;;;;11.18;66.02;98711.39;275453;1244;22662;-80
2023/01/20 22:28:07;;;;;;;10.40;5.40;;;;;;;10.96;65.92;98715.48;276109;1244;24180;-80
2023/01/20 22:34:10;;;;;;;8.40;4.90;;;;;;;11.28;65.92;98717.53;276111;1244;22655;-84
2023/01/20 22:40:12;;;;;;;9.90;5.40;;;;;;;11.34;65.52;98713.42;275817;1230;24214;-84
2023/01/20 22:46:16;;;;;;;8.50;4.80;;;;;;;11.95;65.04;98712.09;275641;1244;23227;-82
2023/01/20 22:52:18;;;;;;;8.90;5.10;;;;;;;11.78;64.27;98704.47;275374;1243;22528;-82
2023/01/20 22:58:20;;;;;;;10.50;5.40;;;;;;;11.83;64.80;98707.13;275380;1237;23872;-80
2023/01/20 23:04:22;;;;;;;9.40;4.70;;;;;;;12.04;64.27;98710.14;275529;1244;22590;-82
2023/01/20 23:16:46;;;;;;;7.90;4.60;;;;;;;11.93;64.16;98708.34;275289;1244;24186;-81
2023/01/20 23:22:48;;;;;;;9.10;4.80;;;;;;;12.42;62.72;98711.15;275268;1244;24165;-82
2023/01/20 23:28:49;;;;;;;8.80;4.60;;;;;;;12.87;62.01;98717.98;275280;1244;22526;-84
2023/01/20 23:34:52;;;;;;;8.10;4.30;;;;;;;13.07;60.94;98705.64;275572;1244;22511;-84
2023/01/20 23:40:53;;;;;;;6.60;4.30;;;;;;;13.12;60.50;98707.20;275195;1244;22510;-82
2023/01/20 23:46:55;;;;;;;7.70;4.40;;;;;;;13.15;60.68;98709.11;275105;1244;24846;-81
2023/01/20 23:52:56;;;;;;;8.50;4.30;;;;;;;13.18;60.73;98707.57;275088;1244;22655;-80
2023/01/20 23:59:07;;;;;;;7.70;4.20;;;;;;;12.44;61.45;98708.77;275191;1244;22557;-80
